createdAt,value
2019-05-17T00:02:26.626Z,18.03
2019-05-17T00:04:56.335Z,21.20
2019-05-17T00:07:27.222Z,19.47
2019-05-17T00:09:57.097Z,20.30
2019-05-17T00:12:27.651Z,22.93
2019-05-17T00:14:59.590Z,20.43
2019-05-17T00:17:28.303Z,17.77
2019-05-17T00:19:57.117Z,19.40
2019-05-17T00:22:26.994Z,17.77
2019-05-17T00:24:56.831Z,20.63
2019-05-17T00:27:28.412Z,22.63
2019-05-17T00:29:57.263Z,23.87
2019-05-17T00:32:27.465Z,21.53
2019-05-17T00:35:00.473Z,20.70
2019-05-17T00:37:29.037Z,22.07
2019-05-17T00:39:57.712Z,20.60
2019-05-17T00:42:27.225Z,20.37
2019-05-17T00:44:56.514Z,20.40
2019-05-17T00:47:26.559Z,21.63
2019-05-17T00:49:57.038Z,21.67
2019-05-17T00:52:27.279Z,19.63
2019-05-17T00:54:56.366Z,23.83
2019-05-17T00:57:27.305Z,20.40
2019-05-17T00:59:56.515Z,18.70
2019-05-17T01:02:26.975Z,22.17
2019-05-17T01:04:56.880Z,18.93
2019-05-17T01:07:26.869Z,19.63
2019-05-17T01:09:56.677Z,23.07
2019-05-17T01:12:27.181Z,17.93
2019-05-17T01:14:58.121Z,18.13
2019-05-17T01:17:27.060Z,18.10
2019-05-17T01:19:58.607Z,20.23
2019-05-17T01:22:30.169Z,16.40
2019-05-17T01:24:58.809Z,19.13
2019-05-17T01:27:27.611Z,21.30
2019-05-17T01:29:57.271Z,24.33
2019-05-17T01:32:26.650Z,23.70
2019-05-17T01:34:56.490Z,18.80
2019-05-17T01:37:27.539Z,19.73
2019-05-17T01:39:57.386Z,18.77
2019-05-17T01:42:26.503Z,21.63
2019-05-17T01:44:56.775Z,20.17
2019-05-17T01:47:27.271Z,21.77
2019-05-17T01:49:57.564Z,20.17
2019-05-17T01:52:27.341Z,18.40
2019-05-17T01:54:57.124Z,19.20
2019-05-17T01:57:27.432Z,19.57
2019-05-17T01:59:57.134Z,23.57
2019-05-17T02:02:30.286Z,22.03
2019-05-17T02:04:58.887Z,17.73
2019-05-17T02:07:27.567Z,22.80
2019-05-17T02:09:58.697Z,23.20
2019-05-17T02:12:27.603Z,24.93
2019-05-17T02:14:57.559Z,23.50
2019-05-17T02:17:27.678Z,24.50
2019-05-17T02:19:57.312Z,22.03
2019-05-17T02:22:27.221Z,25.53
2019-05-17T02:24:59.351Z,25.23
2019-05-17T02:27:34.225Z,24.13
2019-05-17T02:30:02.586Z,23.47
2019-05-17T02:32:33.619Z,25.30
2019-05-17T02:35:03.331Z,19.33
2019-05-17T02:37:33.447Z,24.30
2019-05-17T02:40:07.651Z,26.33
2019-05-17T02:42:33.499Z,21.63
2019-05-17T02:45:03.414Z,24.23
2019-05-17T02:47:33.702Z,27.27
2019-05-17T02:50:05.411Z,27.93
2019-05-17T02:52:33.361Z,26.40
2019-05-17T02:55:04.060Z,25.50
2019-05-17T02:57:34.656Z,30.20
2019-05-17T03:00:04.272Z,24.90
2019-05-17T03:02:34.148Z,25.97
2019-05-17T03:05:04.443Z,26.27
2019-05-17T03:07:33.239Z,25.40
2019-05-17T03:10:16.459Z,25.80
2019-05-17T03:12:33.115Z,29.77
2019-05-17T03:15:04.174Z,25.17
2019-05-17T03:17:33.917Z,24.23
2019-05-17T03:20:04.404Z,26.40
2019-05-17T03:22:33.425Z,28.43
2019-05-17T03:25:03.234Z,27.93
2019-05-17T03:27:33.646Z,30.07
2019-05-17T03:30:04.764Z,31.37
2019-05-17T03:32:36.097Z,32.33
2019-05-17T03:35:08.196Z,28.97
2019-05-17T03:37:38.115Z,32.77
2019-05-17T03:40:23.333Z,31.60
2019-05-17T03:42:37.699Z,26.87
2019-05-17T03:45:09.508Z,28.73
2019-05-17T03:47:38.198Z,28.33
2019-05-17T03:50:07.698Z,30.13
2019-05-17T03:52:36.438Z,27.97
2019-05-17T03:55:07.321Z,28.93
2019-05-17T03:57:36.338Z,27.73
2019-05-17T04:00:07.774Z,28.93
2019-05-17T04:02:36.410Z,29.67
2019-05-17T04:05:05.517Z,30.63
2019-05-17T04:07:34.180Z,27.80
2019-05-17T04:10:05.081Z,29.77
2019-05-17T04:12:33.866Z,29.93
2019-05-17T04:15:03.477Z,30.93
2019-05-17T04:17:32.933Z,34.37
2019-05-17T04:20:03.725Z,35.13
2019-05-17T04:22:33.277Z,32.13
2019-05-17T04:25:02.962Z,29.80
2019-05-17T04:27:33.599Z,28.67
2019-05-17T04:30:03.630Z,32.93
2019-05-17T04:32:33.219Z,30.97
2019-05-17T04:35:04.015Z,29.47
2019-05-17T04:37:33.931Z,33.37
2019-05-17T04:40:05.199Z,36.57
2019-05-17T04:42:33.840Z,31.27
2019-05-17T04:45:03.724Z,33.10
2019-05-17T04:47:33.518Z,30.07
2019-05-17T04:50:04.048Z,33.27
2019-05-17T04:52:33.764Z,31.67
2019-05-17T04:55:04.036Z,25.23
2019-05-17T04:57:33.222Z,32.63
2019-05-17T05:00:04.177Z,34.10
2019-05-17T05:02:32.959Z,34.93
2019-05-17T05:05:03.196Z,31.93
2019-05-17T05:07:33.568Z,33.67
2019-05-17T05:10:03.173Z,35.77
2019-05-17T05:12:33.614Z,32.93
2019-05-17T05:15:03.512Z,36.60
2019-05-17T05:17:32.942Z,36.13
2019-05-17T05:20:02.934Z,33.67
2019-05-17T05:22:32.962Z,33.07
2019-05-17T05:25:03.780Z,34.63
2019-05-17T05:27:32.412Z,33.40
2019-05-17T05:30:03.077Z,36.13
2019-05-17T05:32:31.670Z,36.33
2019-05-17T05:35:05.844Z,33.97
2019-05-17T05:37:34.729Z,36.20
2019-05-17T05:40:13.555Z,35.13
2019-05-17T05:42:42.996Z,30.23
2019-05-17T05:45:12.558Z,33.10
2019-05-17T05:47:42.623Z,32.93
2019-05-17T05:50:12.738Z,31.57
2019-05-17T05:52:42.387Z,34.10
2019-05-17T05:55:12.602Z,37.47
2019-05-17T05:57:42.211Z,35.10
2019-05-17T06:00:13.659Z,31.43
2019-05-17T06:02:43.093Z,37.70
2019-05-17T06:05:16.926Z,37.87
2019-05-17T06:07:43.013Z,37.13
2019-05-17T06:10:13.927Z,36.03
2019-05-17T06:12:47.448Z,38.73
2019-05-17T06:15:18.050Z,39.07
2019-05-17T06:17:46.771Z,40.67
2019-05-17T06:20:16.023Z,37.33
2019-05-17T06:22:44.950Z,39.70
2019-05-17T06:25:17.339Z,39.83
2019-05-17T06:27:45.968Z,40.03
2019-05-17T06:30:15.018Z,45.57
2019-05-17T06:32:46.349Z,42.23
2019-05-17T06:35:15.083Z,41.37
2019-05-17T06:37:43.729Z,36.00
2019-05-17T06:40:13.251Z,41.43
2019-05-17T06:42:45.490Z,40.10
2019-05-17T06:45:13.578Z,39.40
2019-05-17T06:47:43.944Z,43.57
2019-05-17T06:50:14.245Z,44.57
2019-05-17T06:52:44.024Z,40.60
2019-05-17T06:55:13.367Z,44.67
2019-05-17T06:57:43.371Z,44.47
2019-05-17T07:00:19.514Z,40.90
2019-05-17T07:02:46.036Z,40.17
2019-05-17T07:05:20.061Z,41.23
2019-05-17T07:07:49.823Z,41.63
2019-05-17T07:10:19.601Z,43.27
2019-05-17T07:12:58.593Z,43.57
2019-05-17T07:15:21.788Z,40.90
2019-05-17T07:17:50.680Z,40.57
2019-05-17T07:20:19.733Z,43.53
2019-05-17T07:22:54.940Z,42.40
2019-05-17T07:25:25.788Z,42.30
2019-05-17T07:27:54.475Z,45.27
2019-05-17T07:30:32.269Z,39.43
2019-05-17T07:33:00.952Z,43.47
2019-05-17T07:35:30.076Z,42.60
2019-05-17T07:37:59.520Z,38.27
2019-05-17T07:40:30.379Z,36.00
2019-05-17T07:43:09.819Z,39.57
2019-05-17T07:45:29.840Z,38.43
2019-05-17T07:48:00.168Z,36.03
2019-05-17T07:50:29.361Z,36.20
2019-05-17T07:53:00.496Z,33.10
2019-05-17T07:55:30.277Z,31.67
2019-05-17T07:58:00.233Z,29.93
2019-05-17T08:00:32.553Z,32.17
2019-05-17T08:03:02.457Z,30.67
2019-05-17T08:05:31.720Z,28.07
2019-05-17T08:08:00.695Z,32.63
2019-05-17T08:10:32.196Z,23.57
2019-05-17T08:13:00.893Z,26.50
2019-05-17T08:15:30.478Z,24.37
2019-05-17T08:18:01.651Z,25.47
2019-05-17T08:20:40.083Z,25.00
2019-05-17T08:23:10.764Z,23.50
2019-05-17T08:25:52.111Z,24.23
2019-05-17T08:28:11.033Z,26.10
2019-05-17T08:30:41.163Z,22.50
2019-05-17T08:33:11.126Z,24.20
2019-05-17T08:35:40.329Z,21.33
2019-05-17T08:38:10.338Z,21.80
2019-05-17T08:40:40.742Z,23.10
2019-05-17T08:43:10.328Z,24.07
2019-05-17T08:45:40.589Z,21.70
2019-05-17T08:48:09.972Z,25.27
2019-05-17T08:50:40.387Z,24.40
2019-05-17T08:53:13.161Z,24.33
2019-05-17T08:55:43.641Z,20.30
2019-05-17T08:58:13.680Z,22.07
2019-05-17T09:00:42.463Z,20.73
2019-05-17T09:03:13.696Z,19.93
2019-05-17T09:05:42.399Z,18.27
2019-05-17T09:08:11.538Z,18.17
2019-05-17T09:10:41.821Z,18.13
2019-05-17T09:13:14.705Z,16.90
2019-05-17T09:15:44.056Z,21.13
2019-05-17T09:18:14.583Z,17.30
2019-05-17T09:20:49.529Z,18.97
2019-05-17T09:23:19.673Z,17.30
2019-05-17T09:25:50.145Z,17.53
2019-05-17T09:28:24.783Z,18.33
2019-05-17T09:30:53.650Z,16.37
2019-05-17T09:33:22.379Z,16.60
2019-05-17T09:35:51.523Z,20.93
2019-05-17T09:38:21.864Z,15.83
2019-05-17T09:40:50.838Z,20.03
2019-05-17T09:43:21.177Z,17.53
2019-05-17T09:45:50.714Z,15.93
2019-05-17T09:48:23.152Z,16.30
2019-05-17T09:50:51.987Z,15.63
2019-05-17T09:53:22.394Z,14.40
2019-05-17T09:55:51.301Z,14.47
2019-05-17T09:58:25.869Z,17.17
2019-05-17T10:00:54.720Z,15.53
2019-05-17T10:03:25.273Z,14.68
2019-05-17T10:05:57.020Z,15.28
2019-05-17T10:08:26.040Z,15.78
2019-05-17T10:11:06.058Z,15.28
2019-05-17T10:13:28.270Z,15.03
2019-05-17T10:16:00.455Z,15.08
2019-05-17T10:18:29.636Z,14.95
2019-05-17T10:21:00.787Z,14.68
2019-05-17T10:23:30.028Z,15.85
2019-05-17T10:26:02.420Z,13.58
2019-05-17T10:28:43.293Z,15.68
2019-05-17T10:31:13.761Z,13.58
2019-05-17T10:33:42.419Z,14.45
2019-05-17T10:36:11.110Z,14.30
2019-05-17T10:38:39.910Z,14.33
2019-05-17T10:41:11.326Z,13.65
2019-05-17T10:43:49.888Z,14.73
2019-05-17T10:46:16.414Z,12.05
2019-05-17T10:48:47.095Z,12.18
2019-05-17T10:51:19.706Z,12.33
2019-05-17T10:53:46.244Z,11.75
2019-05-17T10:56:16.365Z,11.53
2019-05-17T10:58:52.424Z,12.93
2019-05-17T11:01:23.814Z,12.60
2019-05-17T11:03:52.602Z,12.03
2019-05-17T11:06:22.830Z,13.50
2019-05-17T11:08:54.819Z,12.60
2019-05-17T11:11:26.171Z,12.78
2019-05-17T11:13:54.948Z,13.08
2019-05-17T11:16:25.710Z,13.13
2019-05-17T11:18:57.701Z,13.65
2019-05-17T11:21:29.217Z,13.28
2019-05-17T11:23:59.466Z,13.62
2019-05-17T11:26:33.105Z,11.22
2019-05-17T11:29:07.082Z,15.45
2019-05-17T11:31:36.159Z,12.60
2019-05-17T11:34:10.263Z,12.35
2019-05-17T11:36:42.963Z,15.28
2019-05-17T11:39:12.920Z,11.68
2019-05-17T11:41:44.626Z,11.80
2019-05-17T11:44:22.810Z,9.63
2019-05-17T11:46:54.348Z,12.80
2019-05-17T11:49:24.860Z,10.10
2019-05-17T11:51:53.830Z,10.40
2019-05-17T11:54:32.296Z,10.28
2019-05-17T11:57:01.019Z,11.23
2019-05-17T11:59:30.029Z,9.35
2019-05-17T12:02:01.700Z,9.35
2019-05-17T12:04:33.560Z,10.67
2019-05-17T12:07:04.232Z,8.20
2019-05-17T12:09:37.973Z,8.35
2019-05-17T12:12:06.310Z,9.15
2019-05-17T12:14:37.292Z,10.98
2019-05-17T12:17:06.645Z,8.98
2019-05-17T12:19:37.168Z,9.48
2019-05-17T12:22:08.023Z,9.48
2019-05-17T12:24:36.740Z,11.12
2019-05-17T12:27:08.428Z,9.30
2019-05-17T12:29:40.197Z,9.53
2019-05-17T12:32:17.158Z,11.20
2019-05-17T12:34:46.597Z,9.38
2019-05-17T12:37:15.264Z,10.72
2019-05-17T12:39:47.251Z,10.30
2019-05-17T12:42:15.926Z,12.90
2019-05-17T12:44:50.439Z,13.53
2019-05-17T12:47:19.197Z,14.70
2019-05-17T12:49:48.180Z,16.40
2019-05-17T12:52:17.244Z,18.27
2019-05-17T12:54:45.949Z,15.10
2019-05-17T12:57:14.846Z,14.15
2019-05-17T12:59:44.976Z,14.15
2019-05-17T13:02:13.833Z,16.33
2019-05-17T13:04:45.460Z,14.17
2019-05-17T13:07:14.474Z,15.23
2019-05-17T13:09:45.699Z,14.10
2019-05-17T13:12:14.440Z,13.40
2019-05-17T13:14:47.913Z,14.17
2019-05-17T13:17:16.883Z,13.80
2019-05-17T13:19:48.438Z,14.33
2019-05-17T13:22:17.295Z,12.90
2019-05-17T13:24:47.522Z,14.00
2019-05-17T13:27:16.350Z,14.53
2019-05-17T13:29:45.262Z,12.58
2019-05-17T13:32:14.021Z,13.90
2019-05-17T13:34:45.497Z,11.63
2019-05-17T13:37:15.867Z,11.07
2019-05-17T13:39:46.331Z,12.85
2019-05-17T13:42:15.298Z,15.75
2019-05-17T13:44:47.555Z,11.88
2019-05-17T13:47:16.289Z,14.83
2019-05-17T13:49:45.239Z,13.78
2019-05-17T13:52:15.559Z,13.87
2019-05-17T13:54:44.385Z,14.47
2019-05-17T13:57:13.078Z,12.60
2019-05-17T13:59:41.750Z,14.43
2019-05-17T14:02:10.961Z,15.58
2019-05-17T14:04:43.234Z,12.82
2019-05-17T14:07:13.622Z,12.68
2019-05-17T14:09:44.479Z,12.55
2019-05-17T14:13:11.593Z,12.82
2019-05-17T14:15:12.756Z,13.65
2019-05-17T14:17:41.843Z,10.73
2019-05-17T14:20:12.066Z,11.08
2019-05-17T14:22:41.387Z,11.17
2019-05-17T14:25:10.415Z,10.45
2019-05-17T14:27:39.294Z,12.23
2019-05-17T14:30:09.740Z,13.57
2019-05-17T14:32:38.446Z,14.30
2019-05-17T14:35:14.807Z,14.20
2019-05-17T14:37:46.316Z,10.67
2019-05-17T14:40:15.719Z,11.68
2019-05-17T14:42:44.481Z,12.20
2019-05-17T14:45:22.174Z,10.58
2019-05-17T14:47:52.683Z,9.60
2019-05-17T14:50:21.628Z,11.88
2019-05-17T14:53:00.630Z,10.55
2019-05-17T14:55:31.178Z,10.57
2019-05-17T14:58:04.736Z,9.28
2019-05-17T15:00:33.470Z,12.58
2019-05-17T15:03:02.634Z,11.40
2019-05-17T15:05:33.164Z,15.25
2019-05-17T15:08:07.690Z,12.33
2019-05-17T15:10:42.146Z,11.63
2019-05-17T15:13:15.726Z,12.65
2019-05-17T15:15:44.384Z,11.60
2019-05-17T15:18:13.303Z,11.85
2019-05-17T15:20:42.344Z,11.73
2019-05-17T15:23:11.628Z,16.10
2019-05-17T15:25:42.618Z,13.70
2019-05-17T15:28:11.323Z,13.90
2019-05-17T15:30:40.065Z,13.45
2019-05-17T15:33:08.824Z,16.95
2019-05-17T15:35:38.266Z,14.17
2019-05-17T15:38:10.943Z,15.20
2019-05-17T15:40:42.460Z,14.53
2019-05-17T15:43:11.677Z,15.43
2019-05-17T15:45:41.883Z,17.02
2019-05-17T15:48:10.612Z,15.97
2019-05-17T15:50:43.630Z,14.03
2019-05-17T15:53:12.658Z,13.83
2019-05-17T15:55:41.406Z,13.70
2019-05-17T15:58:10.390Z,14.07
2019-05-17T16:00:40.881Z,13.97
2019-05-17T16:03:09.812Z,14.87
2019-05-17T16:05:39.798Z,13.90
2019-05-17T16:08:08.495Z,15.03
2019-05-17T16:10:37.430Z,14.33
2019-05-17T16:13:06.297Z,13.00
2019-05-17T16:15:36.505Z,14.00
2019-05-17T16:18:05.246Z,13.50
2019-05-17T16:20:40.144Z,14.40
2019-05-17T16:23:09.099Z,12.88
2019-05-17T16:25:41.786Z,12.93
2019-05-17T16:28:10.876Z,13.47
2019-05-17T16:30:47.570Z,12.67
2019-05-17T16:33:17.767Z,19.50
2019-05-17T16:35:46.476Z,14.20
2019-05-17T16:38:15.634Z,13.53
2019-05-17T16:40:45.829Z,13.53
2019-05-17T16:43:18.084Z,15.00
2019-05-17T16:45:46.660Z,15.13
2019-05-17T16:48:18.661Z,15.75
2019-05-17T16:50:50.421Z,13.88
2019-05-17T16:53:19.269Z,15.27
2019-05-17T16:55:54.011Z,13.33
2019-05-17T16:58:23.293Z,14.13
2019-05-17T17:00:52.294Z,13.87
2019-05-17T17:03:22.747Z,13.20
2019-05-17T17:05:51.561Z,13.23
2019-05-17T17:08:27.019Z,13.93
2019-05-17T17:11:01.951Z,13.93
2019-05-17T17:13:33.402Z,15.27
2019-05-17T17:16:02.548Z,14.13
2019-05-17T17:18:37.113Z,13.00
2019-05-17T17:21:06.496Z,13.73
2019-05-17T17:23:35.427Z,12.43
2019-05-17T17:26:04.811Z,13.33
2019-05-17T17:28:35.260Z,12.37
2019-05-17T17:31:10.094Z,13.67
2019-05-17T17:33:42.240Z,12.33
2019-05-17T17:36:11.741Z,12.30
2019-05-17T17:38:46.082Z,11.95
2019-05-17T17:41:17.863Z,11.90
2019-05-17T17:43:57.908Z,12.73
2019-05-17T17:46:16.908Z,15.83
2019-05-17T17:48:46.081Z,11.53
2019-05-17T17:51:14.790Z,11.23
2019-05-17T17:53:46.346Z,14.20
2019-05-17T17:56:20.927Z,12.10
2019-05-17T17:58:52.427Z,12.40
2019-05-17T18:01:25.597Z,13.50
2019-05-17T18:04:03.239Z,11.37
2019-05-17T18:06:36.068Z,15.43
2019-05-17T18:09:05.864Z,14.63
2019-05-17T18:11:39.320Z,16.97
2019-05-17T18:14:16.680Z,18.67
2019-05-17T18:16:48.234Z,15.43
2019-05-17T18:19:23.295Z,15.17
2019-05-17T18:21:52.229Z,12.93
2019-05-17T18:24:29.406Z,12.00
2019-05-17T18:27:32.159Z,12.60
2019-05-17T18:29:48.809Z,15.13
2019-05-17T18:32:17.573Z,14.03
2019-05-17T18:34:48.775Z,12.53
2019-05-17T18:37:18.601Z,13.50
2019-05-17T18:39:48.289Z,16.60
2019-05-17T18:42:20.885Z,14.70
2019-05-17T18:44:49.672Z,15.13
2019-05-17T18:47:25.888Z,15.67
2019-05-17T18:49:57.719Z,12.33
2019-05-17T18:52:34.169Z,13.27
2019-05-17T18:55:05.853Z,14.97
2019-05-17T18:57:35.375Z,13.60
2019-05-17T19:00:05.954Z,13.07
2019-05-17T19:02:35.986Z,17.57
2019-05-17T19:05:07.028Z,14.60
2019-05-17T19:07:36.758Z,17.33
2019-05-17T19:10:09.022Z,13.30
2019-05-17T19:12:39.217Z,13.63
2019-05-17T19:15:12.807Z,17.13
2019-05-17T19:17:41.705Z,15.23
2019-05-17T19:20:11.349Z,15.40
2019-05-17T19:22:40.164Z,14.93
2019-05-17T19:25:10.265Z,17.63
2019-05-17T19:27:39.486Z,15.67
2019-05-17T19:30:09.620Z,15.07
2019-05-17T19:32:41.166Z,15.23
2019-05-17T19:35:12.919Z,15.17
2019-05-17T19:37:43.888Z,14.13
2019-05-17T19:40:12.635Z,14.70
2019-05-17T19:42:41.388Z,13.67
2019-05-17T19:45:14.536Z,14.60
2019-05-17T19:47:44.407Z,14.00
2019-05-17T19:50:19.094Z,14.87
2019-05-17T19:52:54.937Z,14.07
2019-05-17T19:55:25.360Z,12.40
2019-05-17T19:57:55.104Z,15.47
2019-05-17T20:00:28.086Z,14.87
2019-05-17T20:02:58.289Z,18.30
2019-05-17T20:05:27.218Z,14.67
2019-05-17T20:07:57.520Z,16.37
2019-05-17T20:10:29.327Z,16.13
2019-05-17T20:13:04.804Z,17.33
2019-05-17T20:15:36.610Z,16.13
2019-05-17T20:18:10.110Z,14.50
2019-05-17T20:20:43.266Z,14.33
2019-05-17T20:23:18.327Z,17.73
2019-05-17T20:25:55.620Z,15.63
2019-05-17T20:28:24.240Z,13.80
2019-05-17T20:30:53.704Z,17.60
2019-05-17T20:33:25.933Z,14.10
2019-05-17T20:36:01.843Z,15.20
2019-05-17T20:38:30.611Z,14.20
2019-05-17T20:40:59.593Z,15.50
2019-05-17T20:43:31.822Z,15.67
2019-05-17T20:46:03.595Z,19.10
2019-05-17T20:48:33.979Z,18.17
2019-05-17T20:51:05.647Z,16.40
2019-05-17T20:53:34.739Z,16.80
2019-05-17T20:56:03.488Z,17.20
2019-05-17T20:58:32.175Z,16.50
2019-05-17T21:01:04.207Z,16.13
2019-05-17T21:03:32.770Z,16.63
2019-05-17T21:06:18.774Z,18.17
2019-05-17T21:08:49.747Z,18.07
2019-05-17T21:11:19.911Z,16.20
2019-05-17T21:13:50.616Z,18.53
2019-05-17T21:16:20.323Z,18.43
2019-05-17T21:18:54.783Z,20.00
2019-05-17T21:21:23.348Z,20.40
2019-05-17T21:23:53.299Z,19.63
2019-05-17T21:26:22.128Z,23.40
2019-05-17T21:28:51.862Z,22.37
2019-05-17T21:31:27.401Z,18.17
2019-05-17T21:33:58.739Z,19.97
2019-05-17T21:36:27.535Z,21.00
2019-05-17T21:38:59.628Z,18.70
2019-05-17T21:41:29.264Z,19.33
2019-05-17T21:43:57.846Z,18.43
2019-05-17T21:46:29.562Z,20.23
2019-05-17T21:48:59.943Z,19.83
2019-05-17T21:51:32.477Z,18.30
2019-05-17T21:54:03.338Z,22.63
2019-05-17T21:56:35.050Z,20.10
2019-05-17T21:59:04.091Z,20.93
2019-05-17T22:01:38.413Z,22.43
2019-05-17T22:04:10.633Z,20.23
2019-05-17T22:06:39.829Z,23.50
2019-05-17T22:09:09.142Z,21.13
2019-05-17T22:11:39.553Z,23.57
2019-05-17T22:14:08.385Z,21.70
2019-05-17T22:16:38.553Z,23.10
2019-05-17T22:19:07.281Z,22.93
2019-05-17T22:21:38.835Z,20.27
2019-05-17T22:24:08.167Z,19.63
2019-05-17T22:26:37.981Z,24.53
2019-05-17T22:29:06.645Z,22.93
2019-05-17T22:31:39.000Z,21.50
2019-05-17T22:34:08.118Z,24.17
2019-05-17T22:36:36.840Z,25.00
2019-05-17T22:39:06.841Z,22.40
2019-05-17T22:41:35.674Z,23.47
2019-05-17T22:44:04.576Z,23.33
2019-05-17T22:46:36.410Z,25.57
2019-05-17T22:49:04.023Z,22.33
2019-05-17T22:51:36.465Z,25.70
2019-05-17T22:54:05.169Z,26.77
2019-05-17T22:56:36.957Z,24.73
2019-05-17T22:59:05.840Z,24.60
2019-05-17T23:01:35.934Z,23.27
2019-05-17T23:04:05.083Z,24.10
2019-05-17T23:06:33.669Z,25.70
2019-05-17T23:09:05.225Z,28.83
2019-05-17T23:11:34.564Z,25.10
2019-05-17T23:14:03.649Z,23.30
2019-05-17T23:16:32.408Z,28.97
2019-05-17T23:19:08.920Z,22.43
2019-05-17T23:21:38.889Z,23.53
2019-05-17T23:24:09.077Z,24.73
2019-05-17T23:26:40.685Z,25.03
2019-05-17T23:29:14.484Z,25.00
2019-05-17T23:31:46.301Z,23.90
2019-05-17T23:34:14.954Z,26.10
2019-05-17T23:36:51.712Z,22.87
2019-05-17T23:39:24.614Z,26.77
2019-05-17T23:41:53.184Z,28.13
2019-05-17T23:44:28.115Z,28.00
2019-05-17T23:47:07.068Z,27.73
2019-05-17T23:49:30.288Z,25.83
2019-05-17T23:51:58.858Z,27.03
2019-05-17T23:54:27.508Z,26.87
2019-05-17T23:56:56.192Z,24.93
2019-05-17T23:59:26.442Z,26.90
